createdAt,value
2019-02-07T00:00:06.744Z,20.7
2019-02-07T00:01:09.359Z,20.7
2019-02-07T00:02:11.553Z,20.7
2019-02-07T00:03:11.649Z,20.7
2019-02-07T00:04:09.952Z,20.7
2019-02-07T00:05:08.129Z,20.6
2019-02-07T00:06:06.466Z,20.7
2019-02-07T00:07:05.673Z,20.7
2019-02-07T00:08:05.727Z,20.7
2019-02-07T00:09:09.286Z,20.6
2019-02-07T00:10:09.958Z,20.6
2019-02-07T00:11:10.964Z,20.6
2019-02-07T00:12:12.518Z,20.6
2019-02-07T00:13:11.766Z,20.6
2019-02-07T00:14:10.305Z,20.6
2019-02-07T00:15:08.705Z,20.6
2019-02-07T00:16:08.412Z,20.6
2019-02-07T00:17:07.553Z,20.6
2019-02-07T00:18:07.933Z,20.6
2019-02-07T00:19:09.625Z,20.6
2019-02-07T00:20:15.730Z,20.5
2019-02-07T00:21:19.826Z,20.5
2019-02-07T00:22:20.929Z,20.5
2019-02-07T00:23:21.647Z,20.5
2019-02-07T00:24:23.311Z,20.5
2019-02-07T00:25:23.750Z,20.5
2019-02-07T00:26:23.570Z,20.5
2019-02-07T00:27:23.216Z,20.5
2019-02-07T00:28:21.537Z,20.5
2019-02-07T00:29:24.608Z,20.5
2019-02-07T00:30:26.623Z,20.4
2019-02-07T00:31:33.013Z,20.4
2019-02-07T00:32:31.406Z,20.5
2019-02-07T00:33:30.552Z,20.5
2019-02-07T00:34:29.781Z,20.5
2019-02-07T00:35:28.157Z,20.4
2019-02-07T00:36:28.296Z,20.4
2019-02-07T00:37:35.043Z,20.4
2019-02-07T00:38:40.315Z,20.4
2019-02-07T00:39:44.066Z,20.4
2019-02-07T00:40:44.416Z,20.4
2019-02-07T00:41:43.507Z,20.4
2019-02-07T00:42:43.138Z,20.4
2019-02-07T00:43:42.234Z,20.4
2019-02-07T00:44:50.716Z,20.4
2019-02-07T00:45:57.091Z,20.4
2019-02-07T00:46:57.269Z,20.4
2019-02-07T00:47:59.779Z,20.4
2019-02-07T00:49:00.828Z,20.4
2019-02-07T00:50:00.015Z,20.3
2019-02-07T00:51:00.575Z,20.3
2019-02-07T00:51:59.542Z,20.3
2019-02-07T00:53:01.526Z,20.3
2019-02-07T00:54:00.771Z,20.3
2019-02-07T00:55:05.621Z,20.3
2019-02-07T00:56:07.459Z,20.3
2019-02-07T00:57:17.827Z,20.3
2019-02-07T00:58:18.230Z,20.3
2019-02-07T00:59:19.584Z,20.2
2019-02-07T01:00:21.669Z,20.3
2019-02-07T01:01:25.316Z,20.2
2019-02-07T01:02:26.525Z,20.3
2019-02-07T01:03:24.653Z,20.2
2019-02-07T01:04:29.049Z,20.3
2019-02-07T01:05:29.096Z,20.2
2019-02-07T01:06:27.510Z,20.2
2019-02-07T01:07:33.123Z,20.2
2019-02-07T01:08:32.667Z,20.2
2019-02-07T01:09:31.791Z,20.2
2019-02-07T01:10:41.776Z,20.2
2019-02-07T01:11:41.033Z,20.2
2019-02-07T01:12:41.031Z,20.2
2019-02-07T01:13:39.332Z,20.2
2019-02-07T01:14:37.911Z,20.2
2019-02-07T01:15:36.200Z,20.2
2019-02-07T01:16:35.861Z,20.2
2019-02-07T01:17:34.258Z,20.2
2019-02-07T01:18:45.167Z,20.2
2019-02-07T01:19:43.205Z,20.1
2019-02-07T01:20:43.675Z,20.1
2019-02-07T01:21:43.329Z,20.1
2019-02-07T01:22:42.483Z,20.1
2019-02-07T01:23:40.542Z,20.1
2019-02-07T01:24:38.489Z,20.1
2019-02-07T01:25:37.754Z,20.1
2019-02-07T01:26:36.599Z,20.1
2019-02-07T01:27:40.987Z,20.1
2019-02-07T01:28:40.621Z,20.1
2019-02-07T01:29:41.131Z,20.1
2019-02-07T01:30:39.299Z,20.1
2019-02-07T01:31:40.000Z,20.1
2019-02-07T01:31:58.730Z,20.1
2019-02-07T01:32:59.882Z,20.1
2019-02-07T01:34:00.014Z,20.1
2019-02-07T01:34:59.136Z,20
2019-02-07T01:36:01.048Z,20.1
2019-02-07T01:37:01.322Z,20.1
2019-02-07T01:38:00.233Z,20
2019-02-07T01:38:59.274Z,20.1
2019-02-07T01:40:02.543Z,20.1
2019-02-07T01:41:01.913Z,20
2019-02-07T01:42:02.748Z,20
2019-02-07T01:43:04.384Z,20
2019-02-07T01:44:02.385Z,20
2019-02-07T01:45:12.595Z,20
2019-02-07T01:45:13.081Z,20
2019-02-07T01:45:13.366Z,20
2019-02-07T01:46:00.936Z,20
2019-02-07T01:47:02.164Z,20
2019-02-07T01:48:01.485Z,20
2019-02-07T01:49:01.151Z,20
2019-02-07T01:50:02.500Z,20
2019-02-07T01:51:08.556Z,20
2019-02-07T01:52:09.253Z,20
2019-02-07T01:53:08.936Z,20
2019-02-07T01:54:11.371Z,20
2019-02-07T01:55:10.430Z,19.9
2019-02-07T01:56:09.028Z,19.9
2019-02-07T01:57:07.052Z,19.9
2019-02-07T01:58:05.006Z,19.9
2019-02-07T01:59:03.047Z,19.9
2019-02-07T02:00:03.867Z,19.9
2019-02-07T02:01:04.915Z,19.9
2019-02-07T02:02:03.017Z,19.9
2019-02-07T02:03:02.380Z,19.9
2019-02-07T02:04:00.341Z,19.9
2019-02-07T02:05:00.309Z,19.9
2019-02-07T02:05:58.127Z,19.9
2019-02-07T02:06:56.432Z,19.9
2019-02-07T02:07:56.048Z,19.9
2019-02-07T02:08:54.439Z,19.9
2019-02-07T02:09:54.231Z,19.9
2019-02-07T02:10:55.547Z,19.9
2019-02-07T02:11:54.609Z,19.9
2019-02-07T02:12:56.931Z,19.8
2019-02-07T02:13:57.004Z,19.9
2019-02-07T02:14:56.961Z,19.8
2019-02-07T02:15:59.624Z,19.8
2019-02-07T02:17:00.767Z,19.8
2019-02-07T02:17:58.636Z,19.8
2019-02-07T02:19:01.324Z,19.8
2019-02-07T02:19:59.510Z,19.9
2019-02-07T02:21:02.772Z,19.8
2019-02-07T02:22:00.640Z,19.8
2019-02-07T02:22:58.954Z,19.8
2019-02-07T02:24:00.355Z,19.8
2019-02-07T02:25:00.611Z,19.8
2019-02-07T02:26:05.440Z,19.8
2019-02-07T02:27:13.253Z,19.8
2019-02-07T02:28:12.014Z,19.8
2019-02-07T02:29:12.531Z,19.8
2019-02-07T02:30:13.029Z,19.8
2019-02-07T02:31:10.442Z,19.8
2019-02-07T02:32:08.502Z,19.8
2019-02-07T02:33:07.102Z,19.8
2019-02-07T02:34:05.237Z,19.7
2019-02-07T02:35:04.289Z,19.8
2019-02-07T02:36:07.723Z,19.8
2019-02-07T02:37:16.575Z,19.8
2019-02-07T02:38:14.340Z,19.7
2019-02-07T02:39:18.157Z,19.7
2019-02-07T02:40:30.199Z,19.7
2019-02-07T02:41:32.791Z,19.7
2019-02-07T02:42:32.350Z,19.7
2019-02-07T02:43:41.239Z,19.7
2019-02-07T02:44:40.503Z,19.7
2019-02-07T02:45:42.047Z,19.7
2019-02-07T02:46:42.061Z,19.7
2019-02-07T02:47:43.250Z,19.7
2019-02-07T02:48:41.648Z,19.7
2019-02-07T02:49:49.336Z,19.7
2019-02-07T02:50:52.511Z,19.7
2019-02-07T02:51:52.044Z,19.7
2019-02-07T02:52:51.428Z,19.7
2019-02-07T02:53:53.482Z,19.7
2019-02-07T02:54:59.349Z,19.7
2019-02-07T02:56:00.131Z,19.7
2019-02-07T02:56:58.288Z,19.7
2019-02-07T02:58:00.717Z,19.7
2019-02-07T02:59:09.603Z,19.7
2019-02-07T03:00:07.839Z,19.7
2019-02-07T03:01:09.159Z,19.7
2019-02-07T03:02:08.849Z,19.7
2019-02-07T03:03:09.243Z,19.6
2019-02-07T03:04:08.295Z,19.6
2019-02-07T03:05:06.773Z,19.6
2019-02-07T03:06:06.427Z,19.6
2019-02-07T03:07:05.594Z,19.7
2019-02-07T03:08:08.529Z,19.6
2019-02-07T03:09:08.759Z,19.6
2019-02-07T03:10:06.628Z,19.6
2019-02-07T03:11:05.867Z,19.6
2019-02-07T03:12:05.112Z,19.6
2019-02-07T03:13:03.701Z,19.6
2019-02-07T03:14:06.543Z,19.6
2019-02-07T03:15:07.037Z,19.6
2019-02-07T03:16:05.020Z,19.6
2019-02-07T03:17:04.729Z,19.6
2019-02-07T03:18:05.494Z,19.6
2019-02-07T03:19:08.122Z,19.6
2019-02-07T03:20:09.614Z,19.6
2019-02-07T03:21:26.483Z,19.6
2019-02-07T03:22:32.807Z,19.6
2019-02-07T03:23:32.365Z,19.6
2019-02-07T03:24:33.284Z,19.6
2019-02-07T03:25:33.262Z,19.5
2019-02-07T03:26:31.614Z,19.5
2019-02-07T03:27:30.222Z,19.5
2019-02-07T03:28:28.662Z,19.5
2019-02-07T03:29:30.329Z,19.5
2019-02-07T03:30:29.185Z,19.5
2019-02-07T03:31:29.971Z,19.5
2019-02-07T03:32:28.941Z,19.5
2019-02-07T03:33:28.988Z,19.5
2019-02-07T03:34:26.918Z,19.5
2019-02-07T03:35:34.465Z,19.5
2019-02-07T03:36:32.533Z,19.5
2019-02-07T03:37:34.668Z,19.5
2019-02-07T03:38:32.481Z,19.5
2019-02-07T03:39:34.006Z,19.5
2019-02-07T03:40:32.369Z,19.5
2019-02-07T03:41:31.170Z,19.5
2019-02-07T03:42:29.287Z,19.5
2019-02-07T03:43:34.931Z,19.5
2019-02-07T03:44:36.909Z,19.5
2019-02-07T03:45:37.552Z,19.5
2019-02-07T03:46:36.994Z,19.5
2019-02-07T03:47:37.906Z,19.5
2019-02-07T03:48:36.147Z,19.5
2019-02-07T03:49:38.107Z,19.5
2019-02-07T03:50:38.280Z,19.5
2019-02-07T03:51:41.776Z,19.4
2019-02-07T03:52:42.626Z,19.4
2019-02-07T03:53:45.102Z,19.4
2019-02-07T03:54:51.143Z,19.4
2019-02-07T03:55:48.810Z,19.4
2019-02-07T03:56:47.281Z,19.4
2019-02-07T03:57:45.730Z,19.4
2019-02-07T03:58:44.729Z,19.4
2019-02-07T03:59:48.977Z,19.4
2019-02-07T04:00:48.520Z,19.4
2019-02-07T04:01:48.506Z,19.4
2019-02-07T04:02:48.417Z,19.4
2019-02-07T04:03:48.092Z,19.4
2019-02-07T04:04:50.257Z,19.4
2019-02-07T04:05:49.780Z,19.4
2019-02-07T04:06:52.386Z,19.4
2019-02-07T04:07:52.251Z,19.4
2019-02-07T04:08:50.091Z,19.4
2019-02-07T04:09:48.481Z,19.4
2019-02-07T04:10:49.086Z,19.4
2019-02-07T04:11:46.929Z,19.4
2019-02-07T04:12:48.076Z,19.4
2019-02-07T04:13:46.767Z,19.4
2019-02-07T04:14:46.682Z,19.4
2019-02-07T04:15:44.662Z,19.4
2019-02-07T04:16:45.152Z,19.4
2019-02-07T04:17:44.324Z,19.4
2019-02-07T04:18:44.374Z,19.4
2019-02-07T04:19:43.485Z,19.4
2019-02-07T04:20:44.109Z,19.4
2019-02-07T04:21:43.133Z,19.4
2019-02-07T04:22:42.052Z,19.4
2019-02-07T04:23:44.459Z,19.4
2019-02-07T04:24:44.706Z,19.3
2019-02-07T04:25:43.261Z,19.3
2019-02-07T04:26:43.867Z,19.3
2019-02-07T04:27:42.134Z,19.3
2019-02-07T04:28:43.778Z,19.3
2019-02-07T04:29:44.443Z,19.3
2019-02-07T04:30:46.053Z,19.3
2019-02-07T04:31:50.311Z,19.3
2019-02-07T04:32:48.955Z,19.3
2019-02-07T04:33:47.833Z,19.3
2019-02-07T04:34:48.774Z,19.3
2019-02-07T04:35:48.224Z,19.3
2019-02-07T04:36:48.010Z,19.3
2019-02-07T04:37:46.277Z,19.3
2019-02-07T04:38:44.844Z,19.3
2019-02-07T04:39:44.336Z,19.3
2019-02-07T04:40:47.132Z,19.3
2019-02-07T04:41:46.370Z,19.3
2019-02-07T04:42:44.840Z,19.3
2019-02-07T04:43:45.917Z,19.3
2019-02-07T04:44:49.410Z,19.3
2019-02-07T04:45:51.591Z,19.3
2019-02-07T04:46:52.419Z,19.3
2019-02-07T04:47:51.238Z,19.3
2019-02-07T04:48:50.779Z,19.2
2019-02-07T04:49:55.417Z,19.2
2019-02-07T04:50:56.340Z,19.3
2019-02-07T04:52:02.413Z,19.3
2019-02-07T04:53:02.067Z,19.3
2019-02-07T04:54:01.682Z,19.3
2019-02-07T04:55:00.391Z,19.3
2019-02-07T04:56:09.618Z,19.2
2019-02-07T04:57:09.069Z,19.3
2019-02-07T04:58:12.819Z,19.2
2019-02-07T04:59:10.484Z,19.2
2019-02-07T05:00:10.076Z,19.2
2019-02-07T05:01:11.711Z,19.2
2019-02-07T05:02:19.462Z,19.2
2019-02-07T05:03:21.085Z,19.2
2019-02-07T05:04:18.730Z,19.2
2019-02-07T05:05:23.928Z,19.2
2019-02-07T05:06:23.675Z,19.2
2019-02-07T05:07:21.544Z,19.2
2019-02-07T05:08:21.430Z,19.2
2019-02-07T05:09:20.484Z,19.2
2019-02-07T05:10:22.696Z,19.2
2019-02-07T05:11:20.853Z,19.2
2019-02-07T05:12:24.663Z,19.2
2019-02-07T05:13:25.233Z,19.2
2019-02-07T05:14:23.214Z,19.2
2019-02-07T05:15:23.519Z,19.2
2019-02-07T05:16:22.639Z,19.2
2019-02-07T05:17:25.044Z,19.2
2019-02-07T05:18:24.512Z,19.2
2019-02-07T05:19:24.159Z,19.2
2019-02-07T05:20:28.240Z,19.2
2019-02-07T05:21:29.590Z,19.2
2019-02-07T05:22:35.496Z,19.2
2019-02-07T05:23:36.192Z,19.2
2019-02-07T05:24:36.159Z,19.1
2019-02-07T05:25:37.052Z,19.1
2019-02-07T05:26:35.717Z,19.2
2019-02-07T05:27:36.065Z,19.1
2019-02-07T05:28:41.333Z,19.2
2019-02-07T05:29:38.901Z,19.1
2019-02-07T05:30:40.830Z,19.1
2019-02-07T05:31:40.900Z,19.1
2019-02-07T05:32:43.465Z,19.1
2019-02-07T05:33:42.640Z,19.1
2019-02-07T05:34:48.438Z,19.1
2019-02-07T05:35:50.981Z,19.1
2019-02-07T05:36:55.150Z,19.1
2019-02-07T05:37:55.060Z,19.1
2019-02-07T05:38:54.517Z,19.1
2019-02-07T05:39:53.778Z,19.1
2019-02-07T05:40:59.978Z,19.1
2019-02-07T05:42:00.559Z,19.1
2019-02-07T05:42:59.467Z,19.1
2019-02-07T05:44:01.465Z,19.1
2019-02-07T05:45:16.091Z,19.1
2019-02-07T05:46:13.983Z,19.1
2019-02-07T05:47:12.162Z,19.1
2019-02-07T05:48:17.888Z,19.1
2019-02-07T05:49:24.434Z,19.1
2019-02-07T05:50:22.497Z,19.1
2019-02-07T05:51:20.014Z,19.1
2019-02-07T05:52:20.353Z,19.1
2019-02-07T05:53:18.988Z,19.1
2019-02-07T05:54:32.313Z,19.1
2019-02-07T05:55:40.237Z,19.1
2019-02-07T05:56:49.668Z,19.1
2019-02-07T05:57:47.620Z,19.1
2019-02-07T05:58:46.688Z,19.1
2019-02-07T05:59:45.825Z,19.1
2019-02-07T06:00:46.454Z,19.1
2019-02-07T06:01:53.217Z,19
2019-02-07T06:02:52.944Z,19.1
2019-02-07T06:03:50.760Z,19.1
2019-02-07T06:04:53.987Z,19.1
2019-02-07T06:06:03.976Z,19
2019-02-07T06:07:07.575Z,19
2019-02-07T06:08:05.871Z,19.1
2019-02-07T06:09:05.279Z,19.1
2019-02-07T06:10:03.481Z,19
2019-02-07T06:11:01.875Z,19
2019-02-07T06:11:59.898Z,19
2019-02-07T06:12:57.541Z,19
2019-02-07T06:13:55.301Z,19
2019-02-07T06:14:55.657Z,19
2019-02-07T06:15:56.476Z,19
2019-02-07T06:17:04.179Z,19
2019-02-07T06:18:06.498Z,19
2019-02-07T06:19:04.456Z,19
2019-02-07T06:20:02.680Z,19
2019-02-07T06:21:02.615Z,19
2019-02-07T06:22:01.422Z,19
2019-02-07T06:23:02.858Z,19
2019-02-07T06:24:00.285Z,19
2019-02-07T06:24:58.707Z,19
2019-02-07T06:25:56.721Z,19
2019-02-07T06:26:57.769Z,19
2019-02-07T06:27:56.256Z,19
2019-02-07T06:28:57.720Z,19
2019-02-07T06:29:57.067Z,19
2019-02-07T06:30:58.381Z,19
2019-02-07T06:32:01.459Z,19
2019-02-07T06:32:59.213Z,19
2019-02-07T06:33:57.514Z,19
2019-02-07T06:34:58.279Z,19
2019-02-07T06:35:55.799Z,19
2019-02-07T06:36:56.068Z,19
2019-02-07T06:37:56.759Z,19
2019-02-07T06:38:57.835Z,19
2019-02-07T06:39:59.368Z,19
2019-02-07T06:41:01.507Z,19
2019-02-07T06:42:12.199Z,19
2019-02-07T06:43:10.058Z,19
2019-02-07T06:44:09.791Z,19
2019-02-07T06:45:11.408Z,19
2019-02-07T06:46:16.812Z,19
2019-02-07T06:47:15.250Z,18.9
2019-02-07T06:48:13.137Z,19
2019-02-07T06:49:10.800Z,19
2019-02-07T06:50:08.663Z,19
2019-02-07T06:51:11.725Z,19
2019-02-07T06:52:16.518Z,18.9
2019-02-07T06:53:15.127Z,18.9
2019-02-07T06:54:14.947Z,18.9
2019-02-07T06:55:14.254Z,18.9
2019-02-07T06:56:14.883Z,18.9
2019-02-07T06:57:16.979Z,18.9
2019-02-07T06:58:15.487Z,19
2019-02-07T06:59:13.169Z,18.9
2019-02-07T07:00:13.263Z,18.9
2019-02-07T07:01:11.204Z,18.9
2019-02-07T07:02:10.378Z,18.9
2019-02-07T07:03:14.108Z,18.9
2019-02-07T07:04:12.265Z,18.9
2019-02-07T07:05:11.491Z,18.9
2019-02-07T07:06:09.655Z,18.9
2019-02-07T07:07:18.188Z,18.9
2019-02-07T07:08:18.921Z,18.9
2019-02-07T07:09:32.654Z,18.9
2019-02-07T07:10:30.751Z,18.9
2019-02-07T07:11:30.163Z,18.9
2019-02-07T07:12:29.099Z,18.9
2019-02-07T07:13:28.447Z,18.9
2019-02-07T07:14:27.687Z,18.9
2019-02-07T07:15:25.855Z,18.9
2019-02-07T07:16:23.525Z,18.9
2019-02-07T07:17:28.428Z,18.9
2019-02-07T07:18:29.482Z,18.9
2019-02-07T07:19:27.766Z,18.9
2019-02-07T07:20:27.266Z,18.9
2019-02-07T07:21:28.878Z,18.9
2019-02-07T07:22:28.069Z,18.9
2019-02-07T07:23:29.399Z,18.9
2019-02-07T07:24:29.593Z,18.9
2019-02-07T07:25:27.781Z,18.9
2019-02-07T07:26:28.917Z,18.9
2019-02-07T07:27:28.814Z,18.9
2019-02-07T07:28:29.326Z,18.9
2019-02-07T07:29:35.116Z,18.9
2019-02-07T07:30:32.887Z,18.9
2019-02-07T07:31:36.193Z,18.9
2019-02-07T07:32:37.429Z,18.9
2019-02-07T07:33:36.255Z,18.8
2019-02-07T07:34:40.689Z,18.8
2019-02-07T07:35:49.752Z,18.8
2019-02-07T07:36:49.603Z,18.8
2019-02-07T07:37:49.170Z,18.8
2019-02-07T07:38:48.600Z,18.8
2019-02-07T07:39:51.101Z,18.8
2019-02-07T07:40:54.418Z,18.8
2019-02-07T07:41:53.432Z,18.8
2019-02-07T07:42:51.166Z,18.8
2019-02-07T07:43:52.754Z,18.8
2019-02-07T07:44:51.099Z,18.8
2019-02-07T07:45:49.978Z,18.8
2019-02-07T07:46:49.562Z,18.8
2019-02-07T07:47:48.162Z,18.9
2019-02-07T07:48:49.200Z,18.8
2019-02-07T07:49:50.672Z,18.8
2019-02-07T07:50:49.136Z,18.9
2019-02-07T07:51:49.714Z,18.9
2019-02-07T07:52:47.768Z,18.9
2019-02-07T07:53:56.577Z,18.9
2019-02-07T07:54:56.213Z,18.9
2019-02-07T07:55:54.667Z,18.9
2019-02-07T07:56:58.775Z,18.9
2019-02-07T07:58:04.504Z,18.9
2019-02-07T07:59:05.209Z,18.9
2019-02-07T08:00:10.157Z,18.9
2019-02-07T08:01:07.847Z,18.9
2019-02-07T08:02:05.535Z,18.9
2019-02-07T08:03:03.499Z,19
2019-02-07T08:04:02.475Z,18.9
2019-02-07T08:04:57.915Z,19
2019-02-07T08:05:55.070Z,19
2019-02-07T08:06:54.937Z,19
2019-02-07T08:07:53.285Z,19
2019-02-07T08:09:02.148Z,19
2019-02-07T08:09:59.648Z,19
2019-02-07T08:11:00.865Z,19
2019-02-07T08:12:04.980Z,19
2019-02-07T08:13:04.803Z,19
2019-02-07T08:14:02.681Z,19
2019-02-07T08:15:06.498Z,19
2019-02-07T08:16:05.402Z,19
2019-02-07T08:17:07.628Z,19
2019-02-07T08:18:06.523Z,19.1
2019-02-07T08:19:05.288Z,19
2019-02-07T08:20:05.239Z,19
2019-02-07T08:21:08.457Z,19.1
2019-02-07T08:22:09.361Z,19.1
2019-02-07T08:23:10.000Z,19.1
2019-02-07T08:24:08.041Z,19.1
2019-02-07T08:25:05.966Z,19.1
2019-02-07T08:26:05.536Z,19.1
2019-02-07T08:27:10.872Z,19.1
2019-02-07T08:28:09.003Z,19.1
2019-02-07T08:29:14.969Z,19.1
2019-02-07T08:30:16.661Z,19.1
2019-02-07T08:31:15.717Z,19.1
2019-02-07T08:32:16.054Z,19.1
2019-02-07T08:33:15.544Z,19.1
2019-02-07T08:34:20.147Z,19.1
2019-02-07T08:35:18.202Z,19.1
2019-02-07T08:36:17.474Z,19.1
2019-02-07T08:37:15.715Z,19.1
2019-02-07T08:38:14.884Z,19.1
2019-02-07T08:39:12.542Z,19.2
2019-02-07T08:40:10.679Z,19.2
2019-02-07T08:41:11.003Z,19.2
2019-02-07T08:42:09.132Z,19.2
2019-02-07T08:43:08.146Z,19.2
2019-02-07T08:44:13.956Z,19.2
2019-02-07T08:45:16.005Z,19.2
2019-02-07T08:46:16.069Z,19.2
2019-02-07T08:47:17.110Z,19.2
2019-02-07T08:48:19.476Z,19.2
2019-02-07T08:49:21.344Z,19.2
2019-02-07T08:50:19.308Z,19.3
2019-02-07T08:51:17.180Z,19.3
2019-02-07T08:52:21.826Z,19.3
2019-02-07T08:53:19.793Z,19.3
2019-02-07T08:54:20.580Z,19.3
2019-02-07T08:55:26.532Z,19.4
2019-02-07T08:56:27.942Z,19.4
2019-02-07T08:57:28.956Z,19.4
2019-02-07T08:58:27.591Z,19.4
2019-02-07T08:59:28.038Z,19.5
2019-02-07T09:00:26.597Z,19.5
2019-02-07T09:01:25.074Z,19.6
2019-02-07T09:02:24.717Z,19.6
2019-02-07T09:03:23.022Z,19.6
2019-02-07T09:04:22.845Z,19.7
2019-02-07T09:05:25.004Z,19.8
2019-02-07T09:06:24.345Z,19.8
2019-02-07T09:07:23.188Z,19.8
2019-02-07T09:08:21.542Z,19.9
2019-02-07T09:09:22.359Z,19.9
2019-02-07T09:10:24.437Z,20
2019-02-07T09:11:22.905Z,20.1
2019-02-07T09:12:26.861Z,20.1
2019-02-07T09:13:24.739Z,20.1
2019-02-07T09:14:23.758Z,20.2
2019-02-07T09:15:24.315Z,20.2
2019-02-07T09:16:26.400Z,20.2
2019-02-07T09:17:29.740Z,20.3
2019-02-07T09:18:31.207Z,20.4
2019-02-07T09:19:29.807Z,20.4
2019-02-07T09:20:29.404Z,20.4
2019-02-07T09:21:29.860Z,20.4
2019-02-07T09:22:28.838Z,20.5
2019-02-07T09:23:28.268Z,20.5
2019-02-07T09:24:34.403Z,20.6
2019-02-07T09:25:37.079Z,20.6
2019-02-07T09:26:35.739Z,20.6
2019-02-07T09:27:33.974Z,20.7
2019-02-07T09:28:38.533Z,20.7
2019-02-07T09:29:41.225Z,20.7
2019-02-07T09:30:41.309Z,20.8
2019-02-07T09:31:41.084Z,20.8
2019-02-07T09:32:40.854Z,20.8
2019-02-07T09:33:41.727Z,20.9
2019-02-07T09:34:50.375Z,20.9
2019-02-07T09:35:52.620Z,20.9
2019-02-07T09:36:53.213Z,20.9
2019-02-07T09:37:58.330Z,21
2019-02-07T09:39:03.994Z,21
2019-02-07T09:40:07.336Z,21
2019-02-07T09:41:13.954Z,21
2019-02-07T09:42:12.454Z,21
2019-02-07T09:43:10.748Z,21
2019-02-07T09:44:18.208Z,21
2019-02-07T09:45:18.564Z,21.1
2019-02-07T09:46:17.048Z,21.1
2019-02-07T09:47:16.614Z,21
2019-02-07T09:48:21.721Z,21
2019-02-07T09:48:21.868Z,21
2019-02-07T09:49:25.035Z,21.1
2019-02-07T09:50:27.222Z,21.1
2019-02-07T09:51:27.182Z,21.1
2019-02-07T09:52:26.216Z,21
2019-02-07T09:53:25.166Z,21
2019-02-07T09:54:25.833Z,21
2019-02-07T09:55:25.183Z,21
2019-02-07T09:56:35.054Z,21
2019-02-07T09:57:45.076Z,21
2019-02-07T09:58:45.524Z,21
2019-02-07T09:59:51.218Z,21
2019-02-07T10:00:49.638Z,21
2019-02-07T10:01:50.415Z,21
2019-02-07T10:02:50.811Z,21
2019-02-07T10:03:50.062Z,21
2019-02-07T10:04:56.671Z,21
2019-02-07T10:05:59.094Z,21
2019-02-07T10:06:58.566Z,20.9
2019-02-07T10:07:58.590Z,20.9
2019-02-07T10:08:57.559Z,20.9
2019-02-07T10:10:05.305Z,20.9
2019-02-07T10:11:04.433Z,20.9
2019-02-07T10:12:07.965Z,20.9
2019-02-07T10:13:07.514Z,20.9
2019-02-07T10:14:05.916Z,20.9
2019-02-07T10:15:04.564Z,20.8
2019-02-07T10:16:04.071Z,20.8
2019-02-07T10:17:02.387Z,20.8
2019-02-07T10:18:01.348Z,20.8
2019-02-07T10:18:59.670Z,20.8
2019-02-07T10:20:00.031Z,20.8
2019-02-07T10:20:59.387Z,20.8
2019-02-07T10:21:58.089Z,20.8
2019-02-07T10:23:04.190Z,20.7
2019-02-07T10:24:04.584Z,20.7
2019-02-07T10:25:08.271Z,20.7
2019-02-07T10:26:08.753Z,20.7
2019-02-07T10:27:08.622Z,20.7
2019-02-07T10:28:11.017Z,20.6
2019-02-07T10:29:26.155Z,20.7
2019-02-07T10:30:24.951Z,20.6
2019-02-07T10:31:23.678Z,20.6
2019-02-07T10:32:24.738Z,20.6
2019-02-07T10:33:25.493Z,20.6
2019-02-07T10:34:26.684Z,20.6
2019-02-07T10:35:34.664Z,20.6
2019-02-07T10:36:42.003Z,20.6
2019-02-07T10:37:40.945Z,20.5
2019-02-07T10:38:43.877Z,20.5
2019-02-07T10:39:43.363Z,20.5
2019-02-07T10:40:43.894Z,20.5
2019-02-07T10:41:42.335Z,20.5
2019-02-07T10:42:45.874Z,20.5
2019-02-07T10:43:45.221Z,20.5
2019-02-07T10:44:44.363Z,20.4
2019-02-07T10:45:43.186Z,20.4
2019-02-07T10:46:46.551Z,20.4
2019-02-07T10:47:50.473Z,20.4
2019-02-07T10:48:49.746Z,20.4
2019-02-07T10:49:58.668Z,20.4
2019-02-07T10:49:59.282Z,20.4
2019-02-07T10:49:59.513Z,20.4
2019-02-07T10:50:48.031Z,20.4
2019-02-07T10:51:49.338Z,20.4
2019-02-07T10:52:50.973Z,20.4
2019-02-07T10:53:49.117Z,20.3
2019-02-07T10:54:49.856Z,20.3
2019-02-07T10:55:49.302Z,20.4
2019-02-07T10:56:56.551Z,20.3
2019-02-07T10:57:54.591Z,20.3
2019-02-07T10:58:55.060Z,20.3
2019-02-07T11:00:01.023Z,20.3
2019-02-07T11:00:59.466Z,20.3
2019-02-07T11:01:59.530Z,20.3
2019-02-07T11:02:59.618Z,20.3
2019-02-07T11:03:57.674Z,20.2
2019-02-07T11:04:56.356Z,20.2
2019-02-07T11:05:56.862Z,20.2
2019-02-07T11:06:57.146Z,20.2
2019-02-07T11:08:03.653Z,20.2
2019-02-07T11:09:08.499Z,20.2
2019-02-07T11:10:10.735Z,20.2
2019-02-07T11:11:11.627Z,20.2
2019-02-07T11:12:11.759Z,20.2
2019-02-07T11:13:15.930Z,20.2
2019-02-07T11:14:14.838Z,20.2
2019-02-07T11:15:13.791Z,20.1
2019-02-07T11:16:14.712Z,20.1
2019-02-07T11:17:12.882Z,20.1
2019-02-07T11:18:15.139Z,20.1
2019-02-07T11:19:21.410Z,20.1
2019-02-07T11:19:21.776Z,20.1
2019-02-07T11:20:15.806Z,20.1
2019-02-07T11:21:17.767Z,20.1
2019-02-07T11:22:16.483Z,20.1
2019-02-07T11:23:18.840Z,20.1
2019-02-07T11:24:18.199Z,20.1
2019-02-07T11:25:21.731Z,20.1
2019-02-07T11:26:21.843Z,20.1
2019-02-07T11:27:20.348Z,20
2019-02-07T11:28:18.434Z,20
2019-02-07T11:29:16.695Z,20
2019-02-07T11:30:17.849Z,20
2019-02-07T11:31:16.561Z,20
2019-02-07T11:32:18.590Z,20
2019-02-07T11:33:18.258Z,20
2019-02-07T11:34:18.153Z,20
2019-02-07T11:35:17.075Z,20
2019-02-07T11:36:15.319Z,20
2019-02-07T11:37:13.736Z,20
2019-02-07T11:38:15.409Z,20
2019-02-07T11:39:17.838Z,20
2019-02-07T11:40:16.788Z,20
2019-02-07T11:41:18.900Z,20
2019-02-07T11:42:18.764Z,19.9
2019-02-07T11:43:19.636Z,19.9
2019-02-07T11:44:17.760Z,19.9
2019-02-07T11:45:16.064Z,19.9
2019-02-07T11:46:14.420Z,19.9
2019-02-07T11:47:16.899Z,19.9
2019-02-07T11:48:14.921Z,19.9
2019-02-07T11:49:18.008Z,19.9
2019-02-07T11:50:22.947Z,19.9
2019-02-07T11:51:22.799Z,19.9
2019-02-07T11:52:21.462Z,19.9
2019-02-07T11:53:19.424Z,19.9
2019-02-07T11:54:22.625Z,19.9
2019-02-07T11:55:20.504Z,19.9
2019-02-07T11:56:18.576Z,19.9
2019-02-07T11:57:22.334Z,19.9
2019-02-07T11:58:22.093Z,19.9
2019-02-07T11:59:22.047Z,19.8
2019-02-07T12:00:21.446Z,19.8
2019-02-07T12:01:19.500Z,19.9
2019-02-07T12:02:17.637Z,19.8
2019-02-07T12:03:17.141Z,19.8
2019-02-07T12:04:19.631Z,19.8
2019-02-07T12:05:24.760Z,19.8
2019-02-07T12:06:23.381Z,19.8
2019-02-07T12:07:21.652Z,19.8
2019-02-07T12:08:20.583Z,19.8
2019-02-07T12:09:19.955Z,19.8
2019-02-07T12:10:28.979Z,19.8
2019-02-07T12:11:40.439Z,19.8
2019-02-07T12:12:39.683Z,19.8
2019-02-07T12:13:40.050Z,19.8
2019-02-07T12:14:42.357Z,19.8
2019-02-07T12:15:40.600Z,19.8
2019-02-07T12:16:39.650Z,19.8
2019-02-07T12:17:42.909Z,19.8
2019-02-07T12:18:41.983Z,19.8
2019-02-07T12:19:43.141Z,19.8
2019-02-07T12:20:42.027Z,19.8
2019-02-07T12:21:39.807Z,19.8
2019-02-07T12:22:42.398Z,19.8
2019-02-07T12:23:40.998Z,19.8
2019-02-07T12:24:38.834Z,19.8
2019-02-07T12:25:45.478Z,19.7
2019-02-07T12:26:47.449Z,19.7
2019-02-07T12:27:45.400Z,19.7
2019-02-07T12:28:54.179Z,19.7
2019-02-07T12:30:04.199Z,19.7
2019-02-07T12:31:05.652Z,19.7
2019-02-07T12:32:03.734Z,19.7
2019-02-07T12:33:03.799Z,19.7
2019-02-07T12:34:02.890Z,19.7
2019-02-07T12:35:01.341Z,19.7
2019-02-07T12:36:10.340Z,19.7
2019-02-07T12:37:08.911Z,19.7
2019-02-07T12:38:10.683Z,19.7
2019-02-07T12:39:09.829Z,19.7
2019-02-07T12:40:11.585Z,19.7
2019-02-07T12:41:13.424Z,19.7
2019-02-07T12:42:12.404Z,19.8
2019-02-07T12:43:10.988Z,19.8
2019-02-07T12:44:09.965Z,19.8
2019-02-07T12:45:08.797Z,19.8
2019-02-07T12:46:06.884Z,19.9
2019-02-07T12:47:13.796Z,19.9
2019-02-07T12:48:14.139Z,20
2019-02-07T12:49:12.447Z,20
2019-02-07T12:50:11.902Z,20.1
2019-02-07T12:51:14.022Z,20.1
2019-02-07T12:52:15.362Z,20.1
2019-02-07T12:53:16.786Z,20.2
2019-02-07T12:54:15.044Z,20.2
2019-02-07T12:55:13.840Z,20.3
2019-02-07T12:56:12.483Z,20.2
2019-02-07T12:57:12.036Z,20.3
2019-02-07T12:58:12.171Z,20.4
2019-02-07T12:59:18.266Z,20.4
2019-02-07T13:00:16.303Z,20.4
2019-02-07T13:01:15.229Z,20.4
2019-02-07T13:02:15.557Z,20.4
2019-02-07T13:03:14.592Z,20.5
2019-02-07T13:04:15.826Z,20.5
2019-02-07T13:05:14.114Z,20.5
2019-02-07T13:06:13.087Z,20.6
2019-02-07T13:07:13.346Z,20.6
2019-02-07T13:08:18.630Z,20.6
2019-02-07T13:09:20.420Z,20.7
2019-02-07T13:10:19.913Z,20.7
2019-02-07T13:11:18.560Z,20.7
2019-02-07T13:12:20.363Z,20.8
2019-02-07T13:13:18.596Z,20.8
2019-02-07T13:14:23.883Z,20.9
2019-02-07T13:15:26.364Z,20.9
2019-02-07T13:16:29.774Z,21
2019-02-07T13:17:28.234Z,21
2019-02-07T13:18:27.617Z,21
2019-02-07T13:19:40.173Z,21
2019-02-07T13:19:40.687Z,21
2019-02-07T13:20:32.505Z,21.1
2019-02-07T13:21:32.222Z,21.1
2019-02-07T13:22:31.755Z,21.2
2019-02-07T13:23:30.836Z,21.2
2019-02-07T13:24:31.894Z,21.2
2019-02-07T13:25:31.711Z,21.3
2019-02-07T13:26:30.777Z,21.3
2019-02-07T13:27:31.648Z,21.4
2019-02-07T13:28:31.824Z,21.4
2019-02-07T13:29:32.663Z,21.4